Time;durP1;ratioP1;P1;durP2;ratioP2;P2;SDS_P1;SDS_P2;PMS_P1;PMS_P2;Temp;Humidity;BMP_temperature;BMP_pressure;BME280_temperature;BME280_humidity;BME280_pressure;Samples;Min_cycle;Max_cycle;Signal;HPM_P1;HPM_P2
2022/02/14 00:00:33;;;;;;;;;;;;;;;15.66;56.66;99500.88;1022633;29;693;-64
2022/02/14 00:01:24;;;;;;;;;;;;;;;15.65;57.24;99505.41;1022631;29;766;-64
2022/02/14 00:02:14;;;;;;;;;;;;;;;15.65;56.94;99509.94;1017890;29;838;-63
2022/02/14 00:03:05;;;;;;;;;;;;;;;15.64;57.21;99514.47;1019466;29;2039;-63
2022/02/14 00:03:55;;;;;;;;;;;;;;;15.64;57.61;99509.09;1021029;29;896;-63
2022/02/14 00:04:45;;;;;;;;;;;;;;;15.62;57.16;99506.56;1022160;29;774;-63
2022/02/14 00:05:36;;;;;;;;;;;;;;;15.61;56.91;99499.50;1022046;28;777;-63
2022/02/14 00:06:26;;;;;;;;;;;;;;;15.61;57.08;99504.03;1022110;29;638;-63
2022/02/14 00:07:17;;;;;;;;;;;;;;;15.60;56.97;99503.19;1022061;29;762;-63
2022/02/14 00:08:07;;;;;;;;;;;;;;;15.59;57.08;99487.25;1021974;29;642;-63
2022/02/14 00:08:58;;;;;;;;;;;;;;;15.57;57.19;99498.19;1022043;29;692;-63
2022/02/14 00:09:48;;;;;;;;;;;;;;;15.57;57.05;99498.19;1022047;29;801;-64
2022/02/14 00:10:38;;;;;;;;;;;;;;;15.56;57.04;99501.88;1022155;29;815;-63
2022/02/14 00:11:29;;;;;;;;;;;;;;;15.56;57.17;99499.19;1022110;29;775;-62
2022/02/14 00:12:19;;;;;;;;;;;;;;;15.56;56.78;99488.44;1021993;29;778;-63
2022/02/14 00:13:10;;;;;;;;;;;;;;;15.56;57.01;99487.59;1022039;29;627;-63
2022/02/14 00:14:00;;;;;;;;;;;;;;;15.56;56.79;99498.34;1021824;29;1357;-62
2022/02/14 00:14:51;;;;;;;;;;;;;;;15.55;56.89;99496.63;1020927;29;768;-63
2022/02/14 00:15:43;;;;;;;;;;;;;;;15.54;56.76;99487.72;1022125;28;792;-63
2022/02/14 00:16:33;;;;;;;;;;;;;;;15.54;57.11;99493.09;1022009;29;674;-64
2022/02/14 00:17:23;;;;;;;;;;;;;;;15.53;56.52;99480.69;1022007;29;638;-66
2022/02/14 00:18:14;;;;;;;;;;;;;;;15.52;57.14;99476.31;1022000;28;841;-66
2022/02/14 00:19:04;;;;;;;;;;;;;;;15.51;56.32;99488.06;1022003;29;682;-65
2022/02/14 00:19:55;;;;;;;;;;;;;;;15.51;57.35;99488.06;1021970;29;719;-66
2022/02/14 00:20:45;;;;;;;;;;;;;;;15.50;57.11;99483.69;1022042;29;701;-66
2022/02/14 00:21:36;;;;;;;;;;;;;;;15.50;57.20;99481.00;1021750;29;2091;-66
2022/02/14 00:22:26;;;;;;;;;;;;;;;15.50;56.96;99466.75;1022009;29;855;-65
2022/02/14 00:23:16;;;;;;;;;;;;;;;15.48;56.74;99474.97;1021973;29;788;-64
2022/02/14 00:24:07;;;;;;;;;;;;;;;15.48;56.95;99471.44;1021985;29;711;-64
2022/02/14 00:24:57;;;;;;;;;;;;;;;15.48;57.05;99484.84;1021923;29;737;-65
2022/02/14 00:25:48;;;;;;;;;;;;;;;15.47;56.68;99484.00;1022013;29;727;-64
2022/02/14 00:26:38;;;;;;;;;;;;;;;15.47;57.39;99478.63;1021905;29;878;-64
2022/02/14 00:27:28;;;;;;;;;;;;;;;15.46;56.62;99476.13;1021864;29;1980;-65
2022/02/14 00:28:19;;;;;;;;;;;;;;;15.46;56.86;99473.44;1021386;29;936;-67
2022/02/14 00:29:09;;;;;;;;;;;;;;;15.44;57.01;99462.84;1021718;29;1017;-66
2022/02/14 00:30:00;;;;;;;;;;;;;;;15.43;56.98;99463.88;1021887;29;791;-65
2022/02/14 00:30:50;;;;;;;;;;;;;;;15.43;56.85;99463.88;1021853;29;954;-65
2022/02/14 00:31:40;;;;;;;;;;;;;;;15.43;56.90;99474.59;1021734;29;2024;-65
2022/02/14 00:32:31;;;;;;;;;;;;;;;15.42;56.62;99467.53;1020788;29;758;-65
2022/02/14 00:33:21;;;;;;;;;;;;;;;15.43;57.18;99471.06;1022024;29;686;-65
2022/02/14 00:34:12;;;;;;;;;;;;;;;15.42;56.69;99467.53;1021916;29;585;-64
2022/02/14 00:35:02;;;;;;;;;;;;;;;15.41;57.07;99462.34;1021879;29;868;-65
2022/02/14 00:35:52;;;;;;;;;;;;;;;15.41;56.82;99457.81;1021906;29;782;-65
2022/02/14 00:36:43;;;;;;;;;;;;;;;15.41;57.31;99459.66;1021981;29;732;-65
2022/02/14 00:37:33;;;;;;;;;;;;;;;15.41;57.11;99462.34;1021880;29;818;-65
2022/02/14 00:38:24;;;;;;;;;;;;;;;15.39;57.15;99465.22;1021901;29;670;-65
2022/02/14 00:39:14;;;;;;;;;;;;;;;15.40;56.98;99453.47;1021858;29;786;-65
2022/02/14 00:40:04;;;;;;;;;;;;;;;15.39;56.77;99467.91;1021634;29;1875;-64
2022/02/14 00:40:55;;;;;;;;;;;;;;;15.38;56.84;99460.84;1021878;29;790;-65
2022/02/14 00:41:45;;;;;;;;;;;;;;;15.37;56.46;99456.47;1021912;29;1046;-64
2022/02/14 00:42:36;;;;;;;;;;;;;;;15.36;56.95;99459.34;1021978;29;704;-65
2022/02/14 00:43:26;;;;;;;;;;;;;;;15.36;57.22;99464.69;1021893;29;945;-65
2022/02/14 00:44:17;;;;;;;;;;;;;;;15.37;56.90;99455.66;1021904;29;690;-65
2022/02/14 00:45:07;;;;;;;;;;;;;;;15.36;56.88;99457.50;1021732;29;747;-65
2022/02/14 00:45:57;;;;;;;;;;;;;;;15.35;57.13;99445.06;1021836;29;622;-65
2022/02/14 00:46:48;;;;;;;;;;;;;;;15.36;57.09;99451.28;1016171;29;616;-65
2022/02/14 00:47:38;;;;;;;;;;;;;;;15.34;57.04;99443.38;1013134;29;1970;-65
2022/02/14 00:48:29;;;;;;;;;;;;;;;15.32;57.23;99445.41;1017096;29;631;-65
2022/02/14 00:49:19;;;;;;;;;;;;;;;15.32;57.26;99447.22;1021217;29;951;-65
2022/02/14 00:50:11;;;;;;;;;;;;;;;15.32;56.92;99450.75;1021041;29;1699;-65
2022/02/14 00:51:01;;;;;;;;;;;;;;;15.32;56.99;99456.13;1021319;29;667;-64
2022/02/14 00:51:52;;;;;;;;;;;;;;;15.32;57.08;99442.72;1021774;29;615;-63
2022/02/14 00:52:42;;;;;;;;;;;;;;;15.31;57.16;99443.72;1017996;29;746;-64
2022/02/14 00:53:33;;;;;;;;;;;;;;;15.32;57.21;99444.56;1017145;29;1200;-64
2022/02/14 00:54:23;;;;;;;;;;;;;;;15.30;56.99;99436.66;1017440;29;770;-64
2022/02/14 00:55:13;;;;;;;;;;;;;;;15.29;57.03;99440.34;1017965;29;659;-65
2022/02/14 00:56:04;;;;;;;;;;;;;;;15.29;57.27;99445.72;1017292;29;706;-64
2022/02/14 00:56:54;;;;;;;;;;;;;;;15.29;56.79;99435.81;1012728;29;782;-64
2022/02/14 00:57:47;;;;;;;;;;;;;;;15.28;57.18;99428.78;1013684;29;932;-64
2022/02/14 00:58:37;;;;;;;;;;;;;;;15.29;57.22;99440.34;1017518;29;901;-64
2022/02/14 00:59:27;;;;;;;;;;;;;;;15.28;56.97;99430.63;1017200;29;725;-65
2022/02/14 01:00:18;;;;;;;;;;;;;;;15.28;57.26;99438.66;1017372;29;696;-64
2022/02/14 01:01:08;;;;;;;;;;;;;;;15.29;57.10;99432.28;1017414;29;743;-64
2022/02/14 01:01:59;;;;;;;;;;;;;;;15.27;57.12;99423.56;1017449;29;1869;-65
2022/02/14 01:02:49;;;;;;;;;;;;;;;15.26;57.13;99430.78;1017844;29;691;-64
2022/02/14 01:03:40;;;;;;;;;;;;;;;15.27;56.84;99426.25;1013685;29;750;-64
2022/02/14 01:04:30;;;;;;;;;;;;;;;15.25;56.95;99418.34;1014775;29;650;-64
2022/02/14 01:05:20;;;;;;;;;;;;;;;15.25;57.19;99413.00;1018300;29;626;-64
2022/02/14 01:06:11;;;;;;;;;;;;;;;15.24;57.00;99427.41;1018967;28;835;-63
2022/02/14 01:07:01;;;;;;;;;;;;;;;15.24;56.91;99424.72;1019056;28;734;-64
2022/02/14 01:07:52;;;;;;;;;;;;;;;15.24;56.98;99418.53;1021506;28;2094;-64
2022/02/14 01:08:42;;;;;;;;;;;;;;;15.24;56.92;99421.19;1020814;29;829;-65
2022/02/14 01:09:32;;;;;;;;;;;;;;;15.24;57.20;99422.03;1021823;29;674;-65
2022/02/14 01:10:23;;;;;;;;;;;;;;;15.24;56.85;99416.69;1021799;29;879;-65
2022/02/14 01:11:13;;;;;;;;;;;;;;;15.24;57.13;99415.84;1021876;29;638;-65
2022/02/14 01:12:04;;;;;;;;;;;;;;;15.23;57.35;99406.94;1021919;29;985;-65
2022/02/14 01:12:54;;;;;;;;;;;;;;;15.23;56.92;99419.53;1021900;29;695;-65
2022/02/14 01:13:45;;;;;;;;;;;;;;;15.21;57.49;99400.94;1021682;29;938;-64
2022/02/14 01:14:35;;;;;;;;;;;;;;;15.22;56.70;99396.41;1021603;29;1985;-64
2022/02/14 01:15:26;;;;;;;;;;;;;;;15.22;57.02;99407.97;1021717;29;738;-64
2022/02/14 01:16:16;;;;;;;;;;;;;;;15.22;57.08;99404.44;1021851;29;677;-64
2022/02/14 01:17:06;;;;;;;;;;;;;;;15.22;56.73;99396.41;1021663;29;646;-64
2022/02/14 01:17:57;;;;;;;;;;;;;;;15.21;56.79;99389.34;1021819;29;710;-64
2022/02/14 01:18:49;;;;;;;;;;;;;;;15.20;56.67;99393.88;1021635;29;872;-65
2022/02/14 01:19:39;;;;;;;;;;;;;;;15.22;57.30;99388.34;1021211;29;765;-64
2022/02/14 01:20:29;;;;;;;;;;;;;;;15.21;56.92;99378.63;1021716;29;762;-64
2022/02/14 01:21:20;;;;;;;;;;;;;;;15.22;57.10;99388.34;1021819;29;686;-64
2022/02/14 01:22:10;;;;;;;;;;;;;;;15.19;57.08;99381.47;1021846;29;727;-64
2022/02/14 01:23:00;;;;;;;;;;;;;;;15.20;57.13;99383.16;1021084;29;954;-64
2022/02/14 01:23:51;;;;;;;;;;;;;;;15.20;57.27;99382.31;1021611;29;678;-64
2022/02/14 01:24:41;;;;;;;;;;;;;;;15.19;56.74;99380.63;1021774;29;802;-65
2022/02/14 01:25:32;;;;;;;;;;;;;;;15.19;56.87;99370.72;1021704;29;621;-64
2022/02/14 01:26:22;;;;;;;;;;;;;;;15.19;57.35;99375.25;1021651;29;1880;-64
2022/02/14 01:27:13;;;;;;;;;;;;;;;15.18;56.89;99368.22;1022106;29;1153;-64
2022/02/14 01:28:03;;;;;;;;;;;;;;;15.18;57.07;99368.22;1021887;29;760;-64
2022/02/14 01:28:54;;;;;;;;;;;;;;;15.17;57.39;99366.53;1021748;29;920;-64
2022/02/14 01:29:44;;;;;;;;;;;;;;;15.16;57.20;99373.75;1021782;29;777;-63
2022/02/14 01:30:34;;;;;;;;;;;;;;;15.18;56.93;99362.84;1021824;29;786;-66
2022/02/14 01:31:25;;;;;;;;;;;;;;;15.17;57.04;99369.22;1021614;29;875;-66
2022/02/14 01:32:19;;;;;;;;;;;;;;;15.15;57.35;99368.53;1021791;29;682;-65
2022/02/14 01:33:10;;;;;;;;;;;;;;;15.14;57.46;99364.16;1021587;29;741;-66
2022/02/14 01:34:00;;;;;;;;;;;;;;;15.15;57.00;99371.22;1021665;29;747;-65
2022/02/14 01:34:51;;;;;;;;;;;;;;;15.14;56.98;99364.16;1021735;29;740;-66
2022/02/14 01:35:42;;;;;;;;;;;;;;;15.14;57.44;99374.91;1021913;29;742;-66
2022/02/14 01:36:33;;;;;;;;;;;;;;;15.14;57.16;99366.84;1021944;29;730;-66
2022/02/14 01:37:23;;;;;;;;;;;;;;;15.13;57.59;99357.97;1021670;29;733;-65
2022/02/14 01:38:14;;;;;;;;;;;;;;;15.13;57.69;99355.28;1021387;29;1682;-63
2022/02/14 01:39:04;;;;;;;;;;;;;;;15.13;57.09;99360.66;1021661;29;749;-63
2022/02/14 01:39:54;;;;;;;;;;;;;;;15.12;57.04;99356.28;1022039;29;698;-64
2022/02/14 01:40:45;;;;;;;;;;;;;;;15.12;57.38;99352.75;1022211;29;725;-64
2022/02/14 01:41:35;;;;;;;;;;;;;;;15.12;57.45;99358.97;1022060;29;916;-63
2022/02/14 01:42:26;;;;;;;;;;;;;;;15.12;57.35;99352.75;1022197;29;735;-64
2022/02/14 01:43:16;;;;;;;;;;;;;;;15.11;57.28;99345.72;1022215;29;845;-63
2022/02/14 01:44:07;;;;;;;;;;;;;;;15.12;57.35;99347.41;1022056;29;922;-63
2022/02/14 01:44:57;;;;;;;;;;;;;;;15.11;57.68;99346.56;1022226;29;728;-64
2022/02/14 01:45:47;;;;;;;;;;;;;;;15.12;57.05;99344.72;1022127;29;924;-63
2022/02/14 01:46:38;;;;;;;;;;;;;;;15.12;57.03;99352.75;1022262;29;740;-63
2022/02/14 01:47:28;;;;;;;;;;;;;;;15.12;57.27;99340.19;1017327;29;1971;-63
2022/02/14 01:48:19;;;;;;;;;;;;;;;15.11;57.49;99333.13;1015860;29;692;-64
2022/02/14 01:49:09;;;;;;;;;;;;;;;15.10;57.38;99333.31;1020049;29;851;-64
2022/02/14 01:50:00;;;;;;;;;;;;;;;15.09;57.33;99340.50;1020679;29;1856;-65
2022/02/14 01:50:50;;;;;;;;;;;;;;;15.09;57.55;99337.81;1020507;29;759;-64
2022/02/14 01:51:40;;;;;;;;;;;;;;;15.09;57.60;99336.97;1021669;29;776;-64
2022/02/14 01:52:31;;;;;;;;;;;;;;;15.09;57.72;99331.63;1021418;29;788;-63
2022/02/14 01:53:23;;;;;;;;;;;;;;;15.09;57.02;99331.63;1020913;29;1226;-63
2022/02/14 01:54:13;;;;;;;;;;;;;;;15.08;57.38;99335.31;1016961;29;2440;-64
2022/02/14 01:55:03;;;;;;;;;;;;;;;15.08;57.63;99330.78;1017111;29;812;-64
2022/02/14 01:55:54;;;;;;;;;;;;;;;15.08;57.69;99332.63;1016592;29;662;-63
2022/02/14 01:56:44;;;;;;;;;;;;;;;15.08;57.40;99321.88;1016716;29;766;-63
2022/02/14 01:57:35;;;;;;;;;;;;;;;15.08;57.50;99329.94;1016490;29;747;-64
2022/02/14 01:58:25;;;;;;;;;;;;;;;15.08;57.52;99324.56;1016124;29;945;-64
2022/02/14 01:59:16;;;;;;;;;;;;;;;15.07;57.50;99320.22;1016602;29;706;-64
2022/02/14 02:00:06;;;;;;;;;;;;;;;15.07;57.42;99321.06;1016586;29;796;-64
2022/02/14 02:00:57;;;;;;;;;;;;;;;15.07;57.26;99329.09;1016591;29;731;-64
2022/02/14 02:01:48;;;;;;;;;;;;;;;15.08;57.39;99319.22;1016005;29;812;-64
2022/02/14 02:02:38;;;;;;;;;;;;;;;15.07;57.53;99322.91;1012961;29;2022;-63
2022/02/14 02:03:29;;;;;;;;;;;;;;;15.08;57.24;99313.84;1013221;29;817;-63
2022/02/14 02:04:19;;;;;;;;;;;;;;;15.06;57.69;99315.84;1013230;29;852;-63
2022/02/14 02:05:09;;;;;;;;;;;;;;;15.05;57.40;99315.00;1017627;29;636;-63
2022/02/14 02:06:01;;;;;;;;;;;;;;;15.04;57.26;99313.34;1016607;29;818;-64
2022/02/14 02:06:51;;;;;;;;;;;;;;;15.05;56.98;99319.56;1017599;29;1112;-63
2022/02/14 02:07:42;;;;;;;;;;;;;;;15.05;57.14;99311.50;1017139;29;1952;-63
2022/02/14 02:08:32;;;;;;;;;;;;;;;15.04;57.61;99308.00;1016979;29;709;-63
2022/02/14 02:09:22;;;;;;;;;;;;;;;15.03;56.88;99310.84;1017197;29;668;-62
2022/02/14 02:10:13;;;;;;;;;;;;;;;15.03;57.80;99308.16;1017150;29;608;-63
2022/02/14 02:12:25;;;;;;;;;;;;;;;15.02;57.45;99304.63;1016952;29;761;-62
2022/02/14 02:13:16;;;;;;;;;;;;;;;15.02;57.31;99298.44;1017698;29;862;-62
2022/02/14 02:14:06;;;;;;;;;;;;;;;15.02;57.97;99306.47;1016786;29;1768;-62
2022/02/14 02:14:57;;;;;;;;;;;;;;;15.01;57.50;99302.13;1017628;29;744;-62
2022/02/14 02:15:47;;;;;;;;;;;;;;;15.02;57.38;99309.16;1017129;29;686;-63
2022/02/14 02:16:37;;;;;;;;;;;;;;;15.00;57.34;99303.13;1016700;29;762;-62
2022/02/14 02:17:28;;;;;;;;;;;;;;;14.99;57.93;99302.28;1017018;29;647;-62
2022/02/14 02:18:18;;;;;;;;;;;;;;;15.01;57.37;99304.78;1016683;29;620;-61
2022/02/14 02:19:09;;;;;;;;;;;;;;;15.00;57.51;99300.44;1018204;29;856;-62
2022/02/14 02:19:59;;;;;;;;;;;;;;;15.00;57.92;99305.81;1016111;29;726;-62
2022/02/14 02:20:50;;;;;;;;;;;;;;;15.00;57.85;99300.44;1018255;29;772;-63
2022/02/14 02:21:40;;;;;;;;;;;;;;;14.99;57.25;99294.22;1017111;29;716;-62
2022/02/14 02:22:30;;;;;;;;;;;;;;;14.99;57.17;99299.59;1017759;29;2040;-62
2022/02/14 02:23:21;;;;;;;;;;;;;;;14.99;57.37;99294.22;1016611;29;1003;-62
2022/02/14 02:24:11;;;;;;;;;;;;;;;15.00;57.25;99289.72;1017295;29;698;-62
2022/02/14 02:25:02;;;;;;;;;;;;;;;15.00;57.70;99292.38;1021749;29;790;-63
2022/02/14 02:25:52;;;;;;;;;;;;;;;14.99;57.10;99286.19;1016849;29;702;-62
2022/02/14 02:26:43;;;;;;;;;;;;;;;14.99;57.60;99277.28;1017408;29;752;-62
2022/02/14 02:27:33;;;;;;;;;;;;;;;14.98;57.84;99280.97;1017944;29;1891;-63
2022/02/14 02:28:23;;;;;;;;;;;;;;;14.97;57.18;99280.13;1017283;29;662;-63
2022/02/14 02:29:14;;;;;;;;;;;;;;;14.96;57.44;99285.66;1017103;29;686;-63
2022/02/14 02:30:04;;;;;;;;;;;;;;;14.97;57.78;99280.13;1017220;29;696;-63
2022/02/14 02:30:55;;;;;;;;;;;;;;;14.95;57.76;99276.78;1017147;29;676;-63
2022/02/14 02:31:45;;;;;;;;;;;;;;;14.95;57.73;99279.47;1017097;29;868;-64
2022/02/14 02:32:36;;;;;;;;;;;;;;;14.94;57.34;99278.63;1016821;29;1814;-63
2022/02/14 02:33:26;;;;;;;;;;;;;;;14.93;57.38;99274.25;1016448;29;807;-64
2022/02/14 02:34:16;;;;;;;;;;;;;;;14.94;57.75;99265.22;1016560;29;1984;-65
2022/02/14 02:35:07;;;;;;;;;;;;;;;14.94;57.38;99265.22;1013623;29;706;-63
2022/02/14 02:35:58;;;;;;;;;;;;;;;14.94;57.61;99264.38;1013193;29;948;-63
2022/02/14 02:36:49;;;;;;;;;;;;;;;14.93;57.74;99270.75;1013083;29;604;-64
2022/02/14 02:37:39;;;;;;;;;;;;;;;14.92;57.43;99261.84;1013097;29;676;-64
2022/02/14 02:38:31;;;;;;;;;;;;;;;14.93;57.73;99262.69;1013301;29;822;-64
2022/02/14 02:39:21;;;;;;;;;;;;;;;14.92;57.58;99267.22;1013131;29;769;-64
2022/02/14 02:40:12;;;;;;;;;;;;;;;14.91;57.44;99257.50;1013033;29;936;-64
2022/02/14 02:41:02;;;;;;;;;;;;;;;14.93;57.58;99268.06;1013232;29;713;-64
2022/02/14 02:41:52;;;;;;;;;;;;;;;14.91;57.95;99254.81;1013251;29;793;-63
2022/02/14 02:42:43;;;;;;;;;;;;;;;14.91;57.48;99265.53;1013124;29;711;-64
2022/02/14 02:43:33;;;;;;;;;;;;;;;14.92;57.36;99261.84;1014123;29;762;-63
2022/02/14 02:44:24;;;;;;;;;;;;;;;14.92;57.72;99261.00;1013087;29;884;-65
2022/02/14 02:45:14;;;;;;;;;;;;;;;14.91;57.75;99257.50;1013077;29;722;-64
2022/02/14 02:46:05;;;;;;;;;;;;;;;14.90;57.91;99250.44;1016551;29;2180;-64
2022/02/14 02:46:55;;;;;;;;;;;;;;;14.91;58.12;99248.59;1017272;29;707;-65
2022/02/14 02:47:45;;;;;;;;;;;;;;;14.91;57.39;99253.97;1017092;29;1890;-64
2022/02/14 02:48:36;;;;;;;;;;;;;;;14.89;57.24;99245.25;1016974;29;727;-64
2022/02/14 02:49:26;;;;;;;;;;;;;;;14.90;57.52;99247.75;1017550;29;615;-64
2022/02/14 02:50:18;;;;;;;;;;;;;;;14.90;57.38;99246.94;1017028;29;962;-65
2022/02/14 02:51:08;;;;;;;;;;;;;;;14.90;57.12;99250.44;1018124;29;694;-64
2022/02/14 02:51:58;;;;;;;;;;;;;;;14.90;57.45;99253.13;1017962;29;818;-64
2022/02/14 02:52:49;;;;;;;;;;;;;;;14.90;57.48;99246.94;1017828;29;1054;-64
2022/02/14 02:53:39;;;;;;;;;;;;;;;14.89;57.20;99240.72;1017812;29;1212;-64
2022/02/14 02:54:30;;;;;;;;;;;;;;;14.88;57.92;99232.84;1017722;29;768;-65
2022/02/14 02:55:20;;;;;;;;;;;;;;;14.87;57.95;99247.25;1018260;29;718;-65
2022/02/14 02:56:11;;;;;;;;;;;;;;;14.87;57.57;99237.38;1014527;29;641;-65
2022/02/14 02:57:01;;;;;;;;;;;;;;;14.86;57.65;99241.09;1013461;29;864;-65
2022/02/14 02:57:52;;;;;;;;;;;;;;;14.84;57.89;99229.69;1013940;29;726;-66
2022/02/14 02:58:42;;;;;;;;;;;;;;;14.86;57.85;99249.13;1013789;29;958;-66
2022/02/14 02:59:35;;;;;;;;;;;;;;;14.85;57.67;99239.41;1013914;29;743;-65
2022/02/14 03:00:26;;;;;;;;;;;;;;;14.84;57.39;99232.34;1013652;29;665;-65
2022/02/14 03:01:16;;;;;;;;;;;;;;;14.84;57.85;99232.34;1014062;29;712;-65
2022/02/14 03:02:07;;;;;;;;;;;;;;;14.84;58.07;99236.88;1014125;29;698;-65
2022/02/14 03:02:57;;;;;;;;;;;;;;;14.84;57.63;99231.53;1013543;29;822;-65
2022/02/14 03:03:49;;;;;;;;;;;;;;;14.84;57.50;99231.53;1014366;29;700;-65
2022/02/14 03:04:39;;;;;;;;;;;;;;;14.83;57.59;99232.53;1013869;29;863;-64
2022/02/14 03:05:29;;;;;;;;;;;;;;;14.84;57.46;99236.88;1013955;29;714;-65
2022/02/14 03:06:20;;;;;;;;;;;;;;;14.83;57.44;99217.28;1013863;29;647;-65
2022/02/14 03:07:10;;;;;;;;;;;;;;;14.83;57.53;99225.31;1013936;29;784;-65
2022/02/14 03:08:01;;;;;;;;;;;;;;;14.84;57.61;99232.34;1013886;29;821;-65
2022/02/14 03:08:51;;;;;;;;;;;;;;;14.83;57.93;99224.47;1014362;29;700;-64
2022/02/14 03:09:42;;;;;;;;;;;;;;;14.82;57.40;99223.63;1015815;29;709;-65
2022/02/14 03:10:32;;;;;;;;;;;;;;;14.82;57.68;99228.16;1019001;29;1922;-65
2022/02/14 03:11:22;;;;;;;;;;;;;;;14.81;57.89;99230.00;1017623;29;936;-65
2022/02/14 03:12:13;;;;;;;;;;;;;;;14.83;57.64;99219.94;1018375;29;612;-65
2022/02/14 03:13:03;;;;;;;;;;;;;;;14.83;58.09;99228.00;1017625;29;764;-65
2022/02/14 03:13:54;;;;;;;;;;;;;;;14.82;57.32;99234.38;1016494;29;1420;-65
2022/02/14 03:14:44;;;;;;;;;;;;;;;14.83;58.04;99222.63;1016724;29;718;-64
2022/02/14 03:15:34;;;;;;;;;;;;;;;14.80;57.90;99220.28;1016795;29;826;-65
2022/02/14 03:16:25;;;;;;;;;;;;;;;14.80;57.48;99214.91;1017662;29;710;-62
2022/02/14 03:17:16;;;;;;;;;;;;;;;14.80;57.55;99220.28;1016765;29;700;-64
2022/02/14 03:18:07;;;;;;;;;;;;;;;14.79;57.50;99213.25;1017202;29;647;-64
2022/02/14 03:18:57;;;;;;;;;;;;;;;14.79;57.90;99215.91;1016701;29;800;-64
2022/02/14 03:19:48;;;;;;;;;;;;;;;14.78;58.07;99216.94;1017575;29;865;-64
2022/02/14 03:20:38;;;;;;;;;;;;;;;14.77;58.19;99219.75;1014830;29;1771;-63
2022/02/14 03:21:29;;;;;;;;;;;;;;;14.78;57.40;99208.03;1013548;29;867;-64
2022/02/14 03:22:19;;;;;;;;;;;;;;;14.77;58.41;99209.88;1017213;29;635;-64
2022/02/14 03:23:10;;;;;;;;;;;;;;;14.77;57.74;99201.84;1018721;29;674;-64
2022/02/14 03:24:00;;;;;;;;;;;;;;;14.77;58.14;99190.28;1018605;29;975;-64
2022/02/14 03:24:51;;;;;;;;;;;;;;;14.76;57.58;99200.16;1017101;29;747;-64
2022/02/14 03:25:41;;;;;;;;;;;;;;;14.77;57.71;99201.00;1016972;29;825;-65
2022/02/14 03:26:31;;;;;;;;;;;;;;;14.76;57.36;99191.28;1017138;29;680;-64
2022/02/14 03:27:22;;;;;;;;;;;;;;;14.76;57.50;99191.28;1017041;29;714;-64
2022/02/14 03:28:12;;;;;;;;;;;;;;;14.75;58.12;99187.75;1017013;29;939;-64
2022/02/14 03:29:03;;;;;;;;;;;;;;;14.76;57.87;99188.59;1018021;29;917;-64
2022/02/14 03:29:53;;;;;;;;;;;;;;;14.75;57.89;99195.81;1014485;29;850;-64
2022/02/14 03:30:43;;;;;;;;;;;;;;;14.75;58.02;99195.81;1015112;29;724;-64
2022/02/14 03:31:34;;;;;;;;;;;;;;;14.75;57.43;99193.13;1018695;29;636;-64
2022/02/14 03:32:24;;;;;;;;;;;;;;;14.75;57.87;99190.44;1017211;29;867;-63
2022/02/14 03:33:15;;;;;;;;;;;;;;;14.76;57.42;99194.78;1010509;29;691;-63
2022/02/14 03:34:05;;;;;;;;;;;;;;;14.75;57.46;99184.22;1014228;29;900;-64
2022/02/14 03:34:55;;;;;;;;;;;;;;;14.75;57.60;99179.72;1013866;29;728;-64
2022/02/14 03:35:46;;;;;;;;;;;;;;;14.75;58.05;99185.06;1013765;29;795;-64
2022/02/14 03:36:36;;;;;;;;;;;;;;;14.74;57.24;99182.56;1013683;29;774;-64
2022/02/14 03:37:27;;;;;;;;;;;;;;;14.74;57.61;99186.06;1013733;29;673;-64
2022/02/14 03:38:17;;;;;;;;;;;;;;;14.75;57.86;99184.22;1013673;29;947;-65
2022/02/14 03:39:07;;;;;;;;;;;;;;;14.75;57.76;99178.88;1013753;29;855;-64
2022/02/14 03:39:58;;;;;;;;;;;;;;;14.74;57.76;99186.06;1013730;29;723;-65
2022/02/14 03:40:48;;;;;;;;;;;;;;;14.75;57.52;99181.56;1013795;29;754;-65
2022/02/14 03:41:39;;;;;;;;;;;;;;;14.73;57.99;99179.03;1013753;29;825;-64
2022/02/14 03:42:29;;;;;;;;;;;;;;;14.73;57.42;99179.03;1013657;29;758;-65
2022/02/14 03:43:20;;;;;;;;;;;;;;;14.73;57.91;99192.44;1014310;29;647;-64
2022/02/14 03:44:10;;;;;;;;;;;;;;;14.74;58.41;99186.06;1014689;29;1027;-64
2022/02/14 03:45:00;;;;;;;;;;;;;;;14.72;57.75;99177.34;1017147;29;1873;-64
2022/02/14 03:45:51;;;;;;;;;;;;;;;14.73;58.04;99180.88;1017536;29;702;-65
2022/02/14 03:46:41;;;;;;;;;;;;;;;14.73;57.60;99172.84;1016614;29;865;-65
2022/02/14 03:47:32;;;;;;;;;;;;;;;14.73;57.34;99184.41;1017155;29;1890;-65
2022/02/14 03:48:23;;;;;;;;;;;;;;;14.72;58.27;99173.84;1017589;29;655;-64
2022/02/14 03:49:14;;;;;;;;;;;;;;;14.71;57.64;99172.16;1018141;29;832;-64
2022/02/14 03:50:04;;;;;;;;;;;;;;;14.71;57.41;99174.84;1017267;29;784;-64
2022/02/14 03:50:55;;;;;;;;;;;;;;;14.70;57.50;99171.31;1017549;29;719;-64
2022/02/14 03:51:46;;;;;;;;;;;;;;;14.70;58.50;99173.16;1014464;29;760;-64
2022/02/14 03:52:36;;;;;;;;;;;;;;;14.70;57.72;99187.41;1014622;29;734;-65
2022/02/14 03:53:26;;;;;;;;;;;;;;;14.70;57.54;99168.63;1017774;29;2119;-63
2022/02/14 03:54:17;;;;;;;;;;;;;;;14.70;57.66;99175.84;1017624;29;707;-63
2022/02/14 03:55:07;;;;;;;;;;;;;;;14.70;57.97;99167.78;1017920;29;823;-63
2022/02/14 03:55:58;;;;;;;;;;;;;;;14.70;58.19;99176.69;1017677;29;798;-63
2022/02/14 03:56:48;;;;;;;;;;;;;;;14.69;57.99;99172.31;1017617;29;729;-63
2022/02/14 03:57:38;;;;;;;;;;;;;;;14.69;57.79;99166.97;1018125;29;799;-63
2022/02/14 03:58:29;;;;;;;;;;;;;;;14.69;57.70;99163.47;1018021;29;710;-64
2022/02/14 03:59:19;;;;;;;;;;;;;;;14.69;58.05;99160.78;1017579;29;861;-63
2022/02/14 04:00:10;;;;;;;;;;;;;;;14.69;57.71;99161.59;1014311;29;702;-64
2022/02/14 04:01:01;;;;;;;;;;;;;;;14.68;58.29;99162.63;1016342;29;879;-63
2022/02/14 04:01:51;;;;;;;;;;;;;;;14.68;57.80;99168.00;1017694;29;1854;-64
2022/02/14 04:02:42;;;;;;;;;;;;;;;14.68;58.22;99156.44;1016964;29;651;-63
2022/02/14 04:03:32;;;;;;;;;;;;;;;14.67;57.71;99160.13;1016792;29;1768;-63
2022/02/14 04:04:22;;;;;;;;;;;;;;;14.68;57.65;99162.63;1017491;29;698;-63
2022/02/14 04:05:13;;;;;;;;;;;;;;;14.69;58.13;99161.59;1017562;29;642;-63
2022/02/14 04:06:03;;;;;;;;;;;;;;;14.69;58.15;99160.78;1018746;29;824;-63
2022/02/14 04:06:54;;;;;;;;;;;;;;;14.68;57.34;99161.78;1017718;29;730;-63
2022/02/14 04:07:44;;;;;;;;;;;;;;;14.68;57.99;99167.16;1017309;29;1891;-63
2022/02/14 04:08:35;;;;;;;;;;;;;;;14.67;57.75;99160.94;1016253;29;857;-63
2022/02/14 04:09:25;;;;;;;;;;;;;;;14.66;57.97;99153.91;1015945;29;560;-63
2022/02/14 04:10:15;;;;;;;;;;;;;;;14.66;57.42;99153.91;1017653;29;699;-63
2022/02/14 04:11:06;;;;;;;;;;;;;;;14.66;57.83;99155.75;1017484;29;682;-64
2022/02/14 04:11:56;;;;;;;;;;;;;;;14.65;58.01;99160.28;1017119;29;1857;-64
2022/02/14 04:12:47;;;;;;;;;;;;;;;14.65;58.16;99152.22;1017750;29;695;-63
2022/02/14 04:13:37;;;;;;;;;;;;;;;14.66;57.55;99158.44;1016329;29;1469;-63
2022/02/14 04:14:28;;;;;;;;;;;;;;;14.66;58.02;99150.41;1017677;29;734;-63
2022/02/14 04:15:18;;;;;;;;;;;;;;;14.65;58.39;99146.03;1016880;29;771;-63
2022/02/14 04:16:08;;;;;;;;;;;;;;;14.65;57.74;99149.56;1018311;29;937;-62
2022/02/14 04:16:59;;;;;;;;;;;;;;;14.64;58.10;99155.91;1016724;29;790;-63
2022/02/14 04:17:49;;;;;;;;;;;;;;;14.64;57.88;99155.06;1016866;29;786;-63
2022/02/14 04:18:40;;;;;;;;;;;;;;;14.65;58.10;99152.22;1017095;29;783;-62
2022/02/14 04:19:31;;;;;;;;;;;;;;;14.64;57.73;99153.25;1016978;29;664;-62
2022/02/14 04:20:21;;;;;;;;;;;;;;;14.64;57.96;99147.88;1018064;29;891;-62
2022/02/14 04:21:12;;;;;;;;;;;;;;;14.65;57.53;99148.72;1017021;29;713;-62
2022/02/14 04:22:02;;;;;;;;;;;;;;;14.64;57.83;99145.19;1016553;29;1895;-62
2022/02/14 04:22:53;;;;;;;;;;;;;;;14.63;57.85;99145.34;1013363;29;726;-62
2022/02/14 04:23:43;;;;;;;;;;;;;;;14.65;58.11;99151.41;1015009;29;776;-66
2022/02/14 04:24:33;;;;;;;;;;;;;;;14.64;57.66;99150.56;1018418;29;888;-66
2022/02/14 04:25:24;;;;;;;;;;;;;;;14.65;57.70;99151.41;1014157;29;695;-66
2022/02/14 04:26:14;;;;;;;;;;;;;;;14.64;57.64;99147.03;1014079;29;931;-66
2022/02/14 04:27:05;;;;;;;;;;;;;;;14.64;57.62;99155.06;1015861;29;675;-66
2022/02/14 04:27:55;;;;;;;;;;;;;;;14.62;58.06;99141.84;1016795;29;1950;-66
2022/02/14 04:28:46;;;;;;;;;;;;;;;14.62;57.60;99147.19;1017345;29;927;-66
2022/02/14 04:29:36;;;;;;;;;;;;;;;14.64;57.68;99147.03;1016927;29;748;-66
2022/02/14 04:30:29;;;;;;;;;;;;;;;14.63;58.03;99159.59;1013060;29;2129;-67